createdAt,value
2023-03-10T00:00:34.040Z,0
2023-03-10T00:03:59.210Z,0
2023-03-10T00:07:24.353Z,0
2023-03-10T00:10:49.526Z,0
2023-03-10T00:14:14.716Z,0
2023-03-10T00:17:39.875Z,0
2023-03-10T00:21:05.048Z,0
2023-03-10T00:24:30.213Z,0
2023-03-10T00:27:55.372Z,0
2023-03-10T00:31:20.668Z,0
2023-03-10T00:34:45.733Z,0
2023-03-10T00:38:10.885Z,0
2023-03-10T00:41:36.040Z,0
2023-03-10T00:45:01.211Z,0
2023-03-10T00:48:26.419Z,0
2023-03-10T00:51:51.553Z,0
2023-03-10T00:55:16.739Z,0
2023-03-10T00:58:41.915Z,0
2023-03-10T01:02:07.109Z,0
2023-03-10T01:05:32.309Z,0
2023-03-10T01:08:57.461Z,0
2023-03-10T01:12:22.659Z,0
2023-03-10T01:15:47.997Z,0
2023-03-10T01:19:13.041Z,0
2023-03-10T01:22:38.216Z,0
2023-03-10T01:26:03.378Z,0
2023-03-10T01:29:28.544Z,0
2023-03-10T01:32:53.796Z,0
2023-03-10T01:36:18.890Z,0
2023-03-10T01:39:44.068Z,0
2023-03-10T01:43:09.207Z,0
2023-03-10T01:46:34.404Z,0
2023-03-10T01:49:59.557Z,0
2023-03-10T01:53:24.728Z,0
2023-03-10T01:56:49.948Z,0
2023-03-10T02:00:15.126Z,0
2023-03-10T02:03:40.236Z,0
2023-03-10T02:07:05.404Z,0
2023-03-10T02:10:30.554Z,0
2023-03-10T02:13:55.722Z,0
2023-03-10T02:17:20.937Z,0
2023-03-10T02:20:46.073Z,0
2023-03-10T02:24:11.227Z,0
2023-03-10T02:27:36.382Z,0
2023-03-10T02:31:01.573Z,0
2023-03-10T02:34:26.707Z,0
2023-03-10T02:37:51.874Z,0
2023-03-10T02:41:17.008Z,0
2023-03-10T02:44:42.183Z,0
2023-03-10T02:48:07.411Z,0
2023-03-10T02:51:32.535Z,0
2023-03-10T02:54:57.698Z,0
2023-03-10T02:58:22.856Z,0
2023-03-10T03:01:48.020Z,0
2023-03-10T03:05:13.247Z,0
2023-03-10T03:08:38.379Z,0
2023-03-10T03:12:03.564Z,0
2023-03-10T03:15:28.731Z,0
2023-03-10T03:18:53.910Z,0
2023-03-10T03:22:19.060Z,0
2023-03-10T03:25:44.201Z,0
2023-03-10T03:29:09.355Z,0
2023-03-10T03:32:34.554Z,0
2023-03-10T03:35:59.733Z,0
2023-03-10T03:39:24.873Z,0
2023-03-10T03:42:49.970Z,0
2023-03-10T03:46:15.272Z,0
2023-03-10T03:49:40.354Z,0
2023-03-10T03:53:05.499Z,0
2023-03-10T03:56:30.675Z,0
2023-03-10T03:59:55.815Z,0
2023-03-10T04:03:21.043Z,0
2023-03-10T04:06:46.149Z,0
2023-03-10T04:10:11.287Z,0
2023-03-10T04:13:36.462Z,0
2023-03-10T04:17:01.580Z,0
2023-03-10T04:20:26.737Z,0
2023-03-10T04:23:51.902Z,0
2023-03-10T04:27:17.064Z,0
2023-03-10T04:30:42.260Z,0
2023-03-10T04:34:07.395Z,0
2023-03-10T04:37:32.557Z,0
2023-03-10T04:40:57.695Z,0
2023-03-10T04:44:30.763Z,0
2023-03-10T04:47:48.004Z,0
2023-03-10T04:51:13.127Z,0
2023-03-10T04:54:38.265Z,0
2023-03-10T04:58:03.427Z,0
2023-03-10T05:01:28.657Z,0
2023-03-10T05:04:53.756Z,0
2023-03-10T05:08:18.917Z,0
2023-03-10T05:11:44.076Z,0
2023-03-10T05:15:09.233Z,0
2023-03-10T05:18:34.386Z,0
2023-03-10T05:21:59.561Z,0
2023-03-10T05:25:24.665Z,0
2023-03-10T05:28:49.803Z,0
2023-03-10T05:32:15.035Z,0
2023-03-10T05:35:40.205Z,0
2023-03-10T05:39:05.345Z,0
2023-03-10T05:42:30.492Z,0
2023-03-10T05:45:55.661Z,0
2023-03-10T05:49:20.830Z,0
2023-03-10T05:52:45.994Z,0
2023-03-10T05:56:11.184Z,0
2023-03-10T05:59:36.336Z,0
2023-03-10T06:03:01.552Z,0
2023-03-10T06:06:26.616Z,0
2023-03-10T06:09:51.768Z,0
2023-03-10T06:13:16.954Z,0
2023-03-10T06:16:42.201Z,0
2023-03-10T06:20:07.276Z,0
2023-03-10T06:23:32.451Z,0
2023-03-10T06:26:57.618Z,0
2023-03-10T06:30:22.784Z,0
2023-03-10T06:33:47.954Z,0
2023-03-10T06:37:13.114Z,0
2023-03-10T06:40:38.260Z,0
2023-03-10T06:44:03.436Z,0
2023-03-10T06:47:28.644Z,0
2023-03-10T06:50:53.834Z,0
2023-03-10T06:54:18.987Z,0
2023-03-10T06:57:44.154Z,0
2023-03-10T07:01:09.429Z,0
2023-03-10T07:04:34.545Z,0
2023-03-10T07:07:59.618Z,0
2023-03-10T07:11:24.757Z,0
2023-03-10T07:14:49.907Z,0
2023-03-10T07:18:15.099Z,0
2023-03-10T07:21:40.304Z,6
2023-03-10T07:25:05.433Z,6
2023-03-10T07:28:30.610Z,6
2023-03-10T07:31:55.743Z,6
2023-03-10T07:35:20.903Z,0
2023-03-10T07:38:46.143Z,0
2023-03-10T07:42:11.195Z,0
2023-03-10T07:45:36.340Z,6
2023-03-10T07:49:01.487Z,0
2023-03-10T07:52:26.623Z,6
2023-03-10T07:55:51.800Z,6
2023-03-10T07:59:16.928Z,17
2023-03-10T08:02:42.082Z,11
2023-03-10T08:06:07.265Z,6
2023-03-10T08:09:32.454Z,17
2023-03-10T08:12:57.635Z,11
2023-03-10T08:16:22.809Z,17
2023-03-10T08:19:47.956Z,11
2023-03-10T08:23:13.128Z,17
2023-03-10T08:26:38.299Z,17
2023-03-10T08:30:03.500Z,23
2023-03-10T08:33:28.707Z,11
2023-03-10T08:36:53.794Z,17
2023-03-10T08:40:18.951Z,11
2023-03-10T08:43:44.126Z,17
2023-03-10T08:47:09.404Z,6
2023-03-10T08:50:34.435Z,6
2023-03-10T08:53:59.588Z,11
2023-03-10T08:57:24.739Z,17
2023-03-10T09:00:49.910Z,23
2023-03-10T09:04:15.098Z,23
2023-03-10T09:07:40.253Z,23
2023-03-10T09:11:05.356Z,34
2023-03-10T09:14:30.558Z,28
2023-03-10T09:17:55.746Z,11
2023-03-10T09:21:20.990Z,23
2023-03-10T09:24:46.125Z,11
2023-03-10T09:28:11.276Z,6
2023-03-10T09:31:36.544Z,17
2023-03-10T09:35:01.603Z,11
2023-03-10T09:38:26.814Z,11
2023-03-10T09:41:51.934Z,23
2023-03-10T09:45:17.099Z,23
2023-03-10T09:48:42.245Z,17
2023-03-10T09:52:07.405Z,17
2023-03-10T09:55:32.584Z,11
2023-03-10T09:58:57.707Z,23
2023-03-10T10:02:22.871Z,17
2023-03-10T10:05:48.047Z,23
2023-03-10T10:09:13.194Z,17
2023-03-10T10:12:38.382Z,17
2023-03-10T10:16:18.645Z,23
2023-03-10T10:19:28.669Z,28
2023-03-10T10:22:53.817Z,28
2023-03-10T10:26:18.974Z,23
2023-03-10T10:29:44.167Z,23
2023-03-10T10:33:09.287Z,23
2023-03-10T10:36:34.449Z,23
2023-03-10T10:39:59.618Z,39
2023-03-10T10:43:24.772Z,28
2023-03-10T10:46:49.963Z,17
2023-03-10T10:50:17.896Z,23
2023-03-10T10:53:41.029Z,17
2023-03-10T10:57:06.168Z,23
2023-03-10T11:00:31.342Z,23
2023-03-10T11:03:56.526Z,17
2023-03-10T11:07:21.651Z,34
2023-03-10T11:10:46.844Z,39
2023-03-10T11:14:11.992Z,51
2023-03-10T11:17:37.238Z,90
2023-03-10T11:21:02.421Z,62
2023-03-10T11:24:27.538Z,45
2023-03-10T11:27:52.685Z,34
2023-03-10T11:31:17.883Z,23
2023-03-10T11:34:42.994Z,23
2023-03-10T11:38:08.371Z,17
2023-03-10T11:41:33.509Z,11
2023-03-10T11:44:58.670Z,11
2023-03-10T11:48:23.831Z,17
2023-03-10T11:51:49.023Z,0
2023-03-10T11:55:14.244Z,0
2023-03-10T11:58:39.412Z,6
2023-03-10T12:02:04.557Z,0
2023-03-10T12:05:29.758Z,0
2023-03-10T12:08:54.912Z,0
2023-03-10T12:12:20.628Z,6
2023-03-10T12:15:46.611Z,17
2023-03-10T12:19:11.950Z,23
2023-03-10T12:22:37.404Z,34
2023-03-10T12:26:02.735Z,45
2023-03-10T12:29:28.094Z,45
2023-03-10T12:32:53.532Z,28
2023-03-10T12:36:18.940Z,34
2023-03-10T12:39:44.221Z,17
2023-03-10T12:43:10.022Z,11
2023-03-10T12:46:35.521Z,11
2023-03-10T12:50:00.998Z,11
2023-03-10T12:53:26.367Z,11
2023-03-10T12:56:51.701Z,11
2023-03-10T13:00:17.028Z,34
2023-03-10T13:03:42.518Z,23
2023-03-10T13:07:07.805Z,23
2023-03-10T13:10:33.214Z,34
2023-03-10T13:13:58.582Z,17
2023-03-10T13:17:24.048Z,11
2023-03-10T13:20:49.445Z,17
2023-03-10T13:24:14.747Z,6
2023-03-10T13:27:40.089Z,6
2023-03-10T13:31:05.486Z,6
2023-03-10T13:34:30.881Z,6
2023-03-10T13:37:56.261Z,0
2023-03-10T13:41:21.592Z,0
2023-03-10T13:44:46.981Z,0
2023-03-10T13:48:12.345Z,0
2023-03-10T13:51:37.741Z,23
2023-03-10T13:55:03.148Z,28
2023-03-10T13:58:28.526Z,23
2023-03-10T14:01:54.424Z,23
2023-03-10T14:05:19.984Z,11
2023-03-10T14:08:56.513Z,11
2023-03-10T14:12:22.022Z,11
2023-03-10T14:15:47.394Z,11
2023-03-10T14:19:12.730Z,28
2023-03-10T14:22:38.174Z,23
2023-03-10T14:26:03.514Z,17
2023-03-10T14:29:25.300Z,17
2023-03-10T15:05:58.994Z,0
2023-03-10T15:09:25.103Z,6
2023-03-10T15:12:51.258Z,6
2023-03-10T15:16:17.519Z,11
2023-03-10T15:19:43.814Z,17
2023-03-10T15:23:09.946Z,6
2023-03-10T15:26:36.000Z,0
2023-03-10T15:30:02.105Z,6
2023-03-10T15:33:28.251Z,6
2023-03-10T15:36:54.319Z,0
2023-03-10T15:40:20.500Z,6
2023-03-10T15:43:48.796Z,6
2023-03-10T15:47:48.488Z,0
2023-03-10T15:51:14.603Z,0
2023-03-10T15:54:40.746Z,0
2023-03-10T15:58:06.784Z,0
2023-03-10T16:01:33.006Z,0
2023-03-10T16:04:58.993Z,0
2023-03-10T16:08:24.463Z,0
2023-03-10T16:11:49.678Z,0
2023-03-10T16:15:17.006Z,0
2023-03-10T16:18:40.069Z,0
2023-03-10T16:22:05.258Z,0
2023-03-10T16:25:30.464Z,0
2023-03-10T16:28:55.660Z,0
2023-03-10T16:32:20.906Z,0
2023-03-10T16:35:46.088Z,0
2023-03-10T16:39:11.249Z,0
2023-03-10T16:42:36.441Z,0
2023-03-10T16:46:01.752Z,0
2023-03-10T16:49:26.870Z,0
2023-03-10T16:52:52.296Z,0
2023-03-10T16:56:17.626Z,0
2023-03-10T16:59:43.154Z,0
2023-03-10T17:03:08.511Z,0
2023-03-10T17:06:33.712Z,0
2023-03-10T17:09:58.859Z,0
2023-03-10T17:13:24.054Z,0
2023-03-10T17:16:49.297Z,0
2023-03-10T17:20:14.485Z,0
2023-03-10T17:23:39.718Z,0
2023-03-10T17:27:04.857Z,0
2023-03-10T17:30:30.065Z,0
2023-03-10T17:33:55.442Z,0
2023-03-10T17:37:20.725Z,0
2023-03-10T17:40:46.056Z,0
2023-03-10T17:44:11.338Z,0
2023-03-10T17:47:36.748Z,0
2023-03-10T17:51:02.846Z,0
2023-03-10T17:54:28.201Z,0
2023-03-10T17:57:53.494Z,0
2023-03-10T18:01:18.795Z,0
2023-03-10T18:04:44.041Z,0
2023-03-10T18:08:09.312Z,0
2023-03-10T18:11:34.604Z,0
2023-03-10T18:14:59.956Z,0
2023-03-10T18:18:25.201Z,0
2023-03-10T18:21:50.487Z,0
2023-03-10T18:25:15.747Z,0
2023-03-10T18:28:41.049Z,0
2023-03-10T18:32:06.385Z,0
2023-03-10T18:35:31.636Z,0
2023-03-10T18:38:56.965Z,0
2023-03-10T18:42:22.225Z,0
2023-03-10T18:45:47.521Z,0
2023-03-10T18:49:12.942Z,0
2023-03-10T18:52:38.209Z,0
2023-03-10T18:56:03.516Z,0
2023-03-10T18:59:28.847Z,0
2023-03-10T19:02:54.144Z,0
2023-03-10T19:06:19.456Z,0
2023-03-10T19:09:44.745Z,0
2023-03-10T19:13:10.038Z,0
2023-03-10T19:16:35.369Z,0
2023-03-10T19:20:00.633Z,0
2023-03-10T19:23:25.916Z,0
2023-03-10T19:26:51.185Z,0
2023-03-10T19:30:16.491Z,0
2023-03-10T19:33:41.815Z,0
2023-03-10T19:37:07.104Z,0
2023-03-10T19:40:32.399Z,0
2023-03-10T19:43:57.671Z,0
2023-03-10T19:47:22.983Z,0
2023-03-10T19:50:48.224Z,0
2023-03-10T19:54:13.591Z,0
2023-03-10T19:57:38.878Z,0
2023-03-10T20:01:04.196Z,0
2023-03-10T20:04:29.432Z,0
2023-03-10T20:07:54.720Z,0
2023-03-10T20:11:20.013Z,0
2023-03-10T20:14:45.326Z,0
2023-03-10T20:18:10.609Z,0
2023-03-10T20:21:35.922Z,0
2023-03-10T20:25:01.199Z,0
2023-03-10T20:28:26.536Z,0
2023-03-10T20:31:51.890Z,0
2023-03-10T20:35:17.157Z,0
2023-03-10T20:38:42.408Z,0
2023-03-10T20:42:07.656Z,0
2023-03-10T20:45:33.052Z,0
2023-03-10T20:48:58.292Z,0
2023-03-10T20:52:23.566Z,0
2023-03-10T20:55:48.869Z,0
2023-03-10T20:59:14.167Z,0
2023-03-10T21:02:39.460Z,0
2023-03-10T21:06:04.804Z,0
2023-03-10T21:09:30.125Z,0
2023-03-10T21:12:55.434Z,0
2023-03-10T21:16:21.054Z,0
2023-03-10T21:19:45.993Z,0
2023-03-10T21:23:11.300Z,0
2023-03-10T21:26:36.547Z,0
2023-03-10T21:30:01.911Z,0
2023-03-10T21:33:27.249Z,0
2023-03-10T21:36:52.516Z,0
2023-03-10T21:40:17.803Z,0
2023-03-10T21:43:43.014Z,0
2023-03-10T21:47:08.290Z,0
2023-03-10T21:50:33.554Z,0
2023-03-10T21:53:58.819Z,0
2023-03-10T21:57:24.061Z,0
2023-03-10T22:00:49.289Z,0
2023-03-10T22:04:14.603Z,0
2023-03-10T22:07:39.782Z,0
2023-03-10T22:11:05.063Z,0
2023-03-10T22:14:30.325Z,0
2023-03-10T22:17:55.537Z,0
2023-03-10T22:21:20.783Z,0
2023-03-10T22:24:46.036Z,0
2023-03-10T22:28:11.276Z,0
2023-03-10T22:31:36.656Z,0
2023-03-10T22:35:01.750Z,0
2023-03-10T22:38:26.962Z,0
2023-03-10T22:41:52.181Z,0
2023-03-10T22:45:17.424Z,0
2023-03-10T22:48:42.662Z,0
2023-03-10T22:52:07.869Z,0
2023-03-10T22:55:33.073Z,0
2023-03-10T22:58:58.307Z,0
2023-03-10T23:02:23.526Z,0
2023-03-10T23:05:48.798Z,0
2023-03-10T23:09:14.021Z,0
2023-03-10T23:12:39.356Z,0
2023-03-10T23:16:04.521Z,0
2023-03-10T23:19:29.727Z,0
2023-03-10T23:22:54.949Z,0
2023-03-10T23:26:20.160Z,0
2023-03-10T23:29:45.405Z,0
2023-03-10T23:33:10.608Z,0
2023-03-10T23:36:35.838Z,0
2023-03-10T23:40:01.122Z,0
2023-03-10T23:43:26.301Z,0
2023-03-10T23:46:51.520Z,0
2023-03-10T23:50:16.759Z,0
2023-03-10T23:53:43.176Z,0
2023-03-10T23:57:07.225Z,0
